Volkel Air Base

METAR EDLV TAF EDLV
6 °C
°C
-
°C
23m
Idade
05:13:10
LT
04:13
UTC
0 ft

1.000

2.000

3.000

4.000

5.000

OVC 800
IFR
<?= Yii::t('app', 'Wind direction') ?> <?= Yii::t('app', 'of'); ?>
240°
08:17
Nascer do sol
93%
Humidade
Tesoura de Vento
Fechado/Neve
Alcance visual RWY
Condição RWY
Vert. visibilidade
Min. visibilidade
CAVOK
Tendência
Correcção
Relatório especial
1015 hPa
QNH
METAR EDLV 300350Z 24016KT 5000 -RA BR OVC008 06/05 Q1015
Chuva luz, nevoeiro
1 kt
1 kt
05:00
IFR
15 kt
06:00
IFR
15 kt
07:00
IFR
15 kt
08:00
IFR
15 kt
09:00
MVFR
15 kt
10:00
MVFR
15 kt
11:00
MVFR
15 kt
5 km
Visibilidade
800 ft
Tecto
16 kt
Vento
metar-taf.com/EHVK

Metar-Taf.com

Decodificador visual

Nós e terceiros acompanhamos seu comportamento na internet em nosso site com cookies. Se você continuar, nós assumimos que você concorda com nosso política de cookies.